createdAt,value
2022-07-31T00:00:32.643Z,-11422.44
2022-07-31T00:03:40.607Z,-11421.47
2022-07-31T00:06:46.720Z,-11421.03
2022-07-31T00:09:54.332Z,-11418.94
2022-07-31T00:13:00.904Z,-11416.25
2022-07-31T00:16:06.959Z,-11419.63
2022-07-31T00:19:14.285Z,-11417.94
2022-07-31T00:22:20.383Z,-11418.38
2022-07-31T00:25:26.527Z,-11420.06
2022-07-31T00:28:33.213Z,-11417.50
2022-07-31T00:31:39.583Z,-11418.09
2022-07-31T00:34:47.422Z,-11413.72
2022-07-31T00:38:02.183Z,-11413.72
2022-07-31T00:41:19.853Z,-11414.97
2022-07-31T00:44:26.072Z,-11415.53
2022-07-31T00:47:32.449Z,-11401.72
2022-07-31T00:50:40.144Z,-11391.31
2022-07-31T00:53:46.320Z,-11396.81
2022-07-31T00:56:53.188Z,-11403.44
2022-07-31T00:59:59.640Z,-11397.22
2022-07-31T01:03:05.935Z,-11408.50
2022-07-31T01:06:13.680Z,-11410.63
2022-07-31T01:09:20.043Z,-11402.16
2022-07-31T01:12:31.091Z,-11403.56
2022-07-31T01:15:40.147Z,-11404.28
2022-07-31T01:18:47.958Z,-11406.53
2022-07-31T01:22:33.362Z,-11403.84
2022-07-31T01:25:54.275Z,-11392.72
2022-07-31T01:29:11.915Z,-11389.75
2022-07-31T01:32:27.513Z,-11400.75
2022-07-31T01:35:41.012Z,-11398.91
2022-07-31T01:38:51.336Z,-11400.47
2022-07-31T01:41:58.715Z,-11399.75
2022-07-31T01:45:10.712Z,-11398.34
2022-07-31T01:48:17.980Z,-11397.66
2022-07-31T01:51:26.967Z,-11364.97
2022-07-31T01:54:35.231Z,-11363.97
2022-07-31T01:57:44.016Z,-11363.69
2022-07-31T02:00:54.068Z,-11362.28
2022-07-31T02:04:03.069Z,-11359.31
2022-07-31T02:07:11.118Z,-11356.94
2022-07-31T02:10:21.160Z,-11370.03
2022-07-31T02:13:28.956Z,-11367.34
2022-07-31T02:16:37.968Z,-11364.81
2022-07-31T02:19:59.633Z,-11376.38
2022-07-31T02:23:07.678Z,-11369.47
2022-07-31T02:26:16.854Z,-11364.81
2022-07-31T02:29:25.267Z,-11369.88
2022-07-31T02:32:34.908Z,-11363.53
2022-07-31T02:35:45.685Z,-11369.88
2022-07-31T02:38:55.106Z,-11380.47
2022-07-31T02:42:02.857Z,-11384.53
2022-07-31T02:45:11.417Z,-11390.19
2022-07-31T02:48:19.711Z,-11393.13
2022-07-31T02:51:26.106Z,-11394.53
2022-07-31T02:54:34.544Z,-11396.81
2022-07-31T02:57:40.807Z,-11396.81
2022-07-31T03:01:00.163Z,-11399.47
2022-07-31T03:04:08.412Z,-11397.66
2022-07-31T03:07:14.387Z,-11397.66
2022-07-31T03:10:20.526Z,-11395.53
2022-07-31T03:13:30.049Z,-11398.91
2022-07-31T03:16:37.275Z,-11394.97
2022-07-31T03:19:45.024Z,-11397.50
2022-07-31T03:22:52.078Z,-11404.00
2022-07-31T03:25:58.838Z,-11404.00
2022-07-31T03:29:05.898Z,-11403.44
2022-07-31T03:32:32.312Z,-11409.06
2022-07-31T03:35:42.407Z,-11407.66
2022-07-31T03:38:51.432Z,-11404.28
2022-07-31T03:41:58.862Z,-11399.63
2022-07-31T03:45:07.074Z,-11403.00
2022-07-31T03:48:14.249Z,-11406.25
2022-07-31T03:51:22.014Z,-11407.94
2022-07-31T03:54:28.420Z,-11410.47
2022-07-31T03:57:35.209Z,-11405.81
2022-07-31T04:00:42.594Z,-11407.66
2022-07-31T04:03:49.298Z,-11398.91
2022-07-31T04:06:57.529Z,-11403.44
2022-07-31T04:10:04.059Z,-11403.00
2022-07-31T04:13:28.759Z,-11396.38
2022-07-31T04:16:35.094Z,-11398.34
2022-07-31T04:19:41.291Z,-11406.09
2022-07-31T04:22:49.530Z,-11405.41
2022-07-31T04:25:55.675Z,-11390.47
2022-07-31T04:29:01.915Z,-11382.56
2022-07-31T04:32:08.484Z,-11396.38
2022-07-31T04:35:14.955Z,-11394.53
2022-07-31T04:38:22.491Z,-11392.72
2022-07-31T04:41:29.318Z,-11401.03
2022-07-31T04:44:35.583Z,-11393.28
2022-07-31T04:47:41.806Z,-11409.63
2022-07-31T04:50:48.292Z,-11422.31
2022-07-31T04:53:55.851Z,-11411.19
2022-07-31T04:57:02.120Z,-11424.56
2022-07-31T05:00:10.479Z,-11410.75
2022-07-31T05:03:16.701Z,-11416.81
2022-07-31T05:06:22.819Z,-11413.00
2022-07-31T05:09:33.473Z,-11399.47
2022-07-31T05:12:42.384Z,-11400.31
2022-07-31T05:15:48.323Z,-11405.97
2022-07-31T05:18:54.339Z,-11400.75
2022-07-31T05:22:02.653Z,-11393.69
2022-07-31T05:25:11.111Z,-11390.19
2022-07-31T05:28:17.103Z,-11416.38
2022-07-31T05:31:35.930Z,-11432.03
2022-07-31T05:34:42.074Z,-11411.19
2022-07-31T05:37:48.282Z,-11416.38
2022-07-31T05:40:56.151Z,-11396.81
2022-07-31T05:44:02.432Z,-11405.69
2022-07-31T05:47:09.345Z,-11421.47
2022-07-31T05:50:15.868Z,-11403.84
2022-07-31T05:53:22.365Z,-11416.38
2022-07-31T05:56:30.323Z,-11401.59
2022-07-31T05:59:36.607Z,-11413.28
2022-07-31T06:02:42.643Z,-11403.84
2022-07-31T06:05:48.956Z,-11406.25
2022-07-31T06:08:55.166Z,-11434.72
2022-07-31T06:12:02.474Z,-11447.97
2022-07-31T06:15:09.360Z,-11424.84
2022-07-31T06:18:16.298Z,-11425.00
2022-07-31T06:21:25.566Z,-11451.06
2022-07-31T06:24:33.766Z,-11443.47
2022-07-31T06:27:42.223Z,-11454.88
2022-07-31T06:30:48.608Z,-11456.16
2022-07-31T06:33:54.578Z,-11485.75
2022-07-31T06:37:00.514Z,-11470.38
2022-07-31T06:40:07.604Z,-11491.81
2022-07-31T06:43:17.109Z,-11498.44
2022-07-31T06:46:23.305Z,-11492.97
2022-07-31T06:49:29.305Z,-11508.06
2022-07-31T06:52:35.266Z,-11512.69
2022-07-31T06:55:44.103Z,-11516.38
2022-07-31T06:58:52.172Z,-11519.06
2022-07-31T07:01:58.460Z,-11534.28
2022-07-31T07:05:06.859Z,-11535.13
2022-07-31T07:08:13.351Z,-11530.19
2022-07-31T07:11:20.318Z,-11539.09
2022-07-31T07:14:27.718Z,-11544.31
2022-07-31T07:17:34.065Z,-11544.16
2022-07-31T07:20:40.736Z,-11541.63
2022-07-31T07:23:47.027Z,-11544.31
2022-07-31T07:26:53.519Z,-11554.34
2022-07-31T07:30:01.697Z,-11566.47
2022-07-31T07:33:08.186Z,-11585.53
2022-07-31T07:36:22.720Z,-11571.41
2022-07-31T07:39:29.684Z,-11572.81
2022-07-31T07:42:35.838Z,-11584.25
2022-07-31T07:45:43.507Z,-11574.09
2022-07-31T07:48:51.981Z,-11571.97
2022-07-31T07:52:00.325Z,-11562.22
2022-07-31T07:55:08.227Z,-11572.13
2022-07-31T07:58:14.156Z,-11569.84
2022-07-31T08:01:21.885Z,-11592.00
2022-07-31T08:04:27.831Z,-11572.69
2022-07-31T08:07:42.636Z,-11605.72
2022-07-31T08:10:49.328Z,-11599.50
2022-07-31T08:13:55.836Z,-11592.56
2022-07-31T08:17:03.555Z,-11595.69
2022-07-31T08:20:10.942Z,-11597.38
2022-07-31T08:23:18.251Z,-11622.09
2022-07-31T08:26:28.060Z,-11614.31
2022-07-31T08:29:34.744Z,-11624.63
2022-07-31T08:32:45.424Z,-11603.44
2022-07-31T08:35:51.924Z,-11622.94
2022-07-31T08:38:57.924Z,-11634.22
2022-07-31T08:42:06.705Z,-11646.50
2022-07-31T08:45:14.215Z,-11638.03
2022-07-31T08:48:26.164Z,-11631.13
2022-07-31T08:51:51.465Z,-11648.06
2022-07-31T08:54:59.754Z,-11654.28
2022-07-31T08:58:06.526Z,-11641.00
2022-07-31T09:01:13.916Z,-11639.88
2022-07-31T09:04:21.444Z,-11653.72
2022-07-31T09:07:27.617Z,-11650.19
2022-07-31T09:10:33.959Z,-11651.47
2022-07-31T09:13:41.453Z,-11641.72
2022-07-31T09:16:50.449Z,-11661.75
2022-07-31T09:19:58.130Z,-11646.78
2022-07-31T09:23:09.338Z,-11657.38
2022-07-31T09:26:16.509Z,-11634.66
2022-07-31T09:29:35.187Z,-11636.50
2022-07-31T09:32:43.343Z,-11633.25
2022-07-31T09:35:51.495Z,-11648.78
2022-07-31T09:38:59.287Z,-11654.69
2022-07-31T09:42:16.381Z,-11649.63
2022-07-31T09:45:25.749Z,-11641.84
2022-07-31T09:48:32.804Z,-11638.75
2022-07-31T09:51:43.523Z,-11626.59
2022-07-31T09:54:50.309Z,-11618.97
2022-07-31T09:57:58.895Z,-11632.25
2022-07-31T10:01:06.197Z,-11614.03
2022-07-31T10:04:13.127Z,-11619.53
2022-07-31T10:07:32.471Z,-11608.38
2022-07-31T10:10:39.871Z,-11618.28
2022-07-31T10:13:48.171Z,-11644.09
2022-07-31T10:17:00.501Z,-11613.34
2022-07-31T10:20:09.031Z,-11619.13
2022-07-31T10:23:22.730Z,-11631.69
2022-07-31T10:26:50.570Z,-11627.72
2022-07-31T10:29:56.632Z,-11637.06
2022-07-31T10:33:17.471Z,-11637.06
2022-07-31T10:36:38.124Z,-11636.34
2022-07-31T10:39:57.987Z,-11649.06
2022-07-31T10:43:20.970Z,-11641.56
2022-07-31T10:46:31.976Z,-11646.94
2022-07-31T10:49:42.268Z,-11656.25
2022-07-31T10:52:48.444Z,-11660.63
2022-07-31T10:56:03.343Z,-11661.63
2022-07-31T10:59:11.082Z,-11670.81
2022-07-31T11:02:29.870Z,-11658.78
2022-07-31T11:06:01.453Z,-11663.16
2022-07-31T11:09:02.416Z,-11671.22
2022-07-31T11:12:20.340Z,-11669.53
2022-07-31T11:15:27.092Z,-11670.38
2022-07-31T11:18:34.726Z,-11679.69
2022-07-31T11:21:43.092Z,-11675.31
2022-07-31T11:24:56.063Z,-11671.78
2022-07-31T11:28:14.166Z,-11682.94
2022-07-31T11:31:20.338Z,-11681.53
2022-07-31T11:34:26.822Z,-11675.88
2022-07-31T11:37:46.580Z,-11677.72
2022-07-31T11:41:00.282Z,-11679.00
2022-07-31T11:44:08.648Z,-11688.72
2022-07-31T11:47:27.872Z,-11699.91
2022-07-31T11:50:41.935Z,-11696.06
2022-07-31T11:53:51.081Z,-11686.06
2022-07-31T11:57:03.874Z,-11712.19
2022-07-31T12:00:29.088Z,-11706.53
2022-07-31T12:03:37.672Z,-11715.00
2022-07-31T12:06:44.108Z,-11705.69
2022-07-31T12:10:00.358Z,-11704.97
2022-07-31T12:13:15.898Z,-11695.09
2022-07-31T12:16:24.027Z,-11725.19
2022-07-31T12:19:31.754Z,-11718.25
2022-07-31T12:22:43.892Z,-11715.56
2022-07-31T12:25:50.126Z,-11717.13
2022-07-31T12:29:04.228Z,-11711.06
2022-07-31T12:32:12.086Z,-11708.22
2022-07-31T12:35:18.791Z,-11696.78
2022-07-31T12:38:44.974Z,-11722.63
2022-07-31T12:41:51.789Z,-11716.00
2022-07-31T12:45:19.460Z,-11723.63
2022-07-31T12:48:28.072Z,-11713.59
2022-07-31T12:51:45.852Z,-11712.19
2022-07-31T12:54:52.658Z,-11704.84
2022-07-31T12:57:58.786Z,-11710.63
2022-07-31T13:01:04.834Z,-11687.03
2022-07-31T13:04:19.270Z,-11711.63
2022-07-31T13:07:25.771Z,-11685.78
2022-07-31T13:10:32.380Z,-11686.47
2022-07-31T13:13:38.523Z,-11692.69
2022-07-31T13:16:44.562Z,-11675.88
2022-07-31T13:19:52.333Z,-11687.88
2022-07-31T13:22:59.684Z,-11696.66
2022-07-31T13:26:05.803Z,-11663.03
2022-07-31T13:29:12.316Z,-11684.66
2022-07-31T13:32:18.268Z,-11662.47
2022-07-31T13:35:28.960Z,-11687.31
2022-07-31T13:38:35.516Z,-11695.66
2022-07-31T13:41:41.933Z,-11691.28
2022-07-31T13:44:48.129Z,-11693.13
2022-07-31T13:47:59.653Z,-11685.91
2022-07-31T13:51:07.464Z,-11712.03
2022-07-31T13:54:13.920Z,-11704.84
2022-07-31T13:57:19.937Z,-11699.19
2022-07-31T14:00:25.728Z,-11697.91
2022-07-31T14:03:32.045Z,-11696.94
2022-07-31T14:06:41.736Z,-11698.19
2022-07-31T14:09:55.101Z,-11715.28
2022-07-31T14:13:01.822Z,-11690.72
2022-07-31T14:16:07.830Z,-11699.63
2022-07-31T14:19:13.809Z,-11698.06
2022-07-31T14:22:21.161Z,-11696.38
2022-07-31T14:25:27.532Z,-11713.59
2022-07-31T14:28:33.855Z,-11718.97
2022-07-31T14:31:39.884Z,-11708.50
2022-07-31T14:34:46.052Z,-11731.97
2022-07-31T14:37:53.672Z,-11715.44
2022-07-31T14:40:59.887Z,-11705.53
2022-07-31T14:44:06.432Z,-11681.09
2022-07-31T14:47:12.996Z,-11713.88
2022-07-31T14:50:20.059Z,-11689.31
2022-07-31T14:53:27.891Z,-11699.75
2022-07-31T14:56:59.522Z,-11694.09
2022-07-31T15:00:00.704Z,-11699.75
2022-07-31T15:03:07.437Z,-11699.03
2022-07-31T15:06:41.706Z,-11690.44
2022-07-31T15:09:45.092Z,-11695.50
2022-07-31T15:12:51.263Z,-11695.09
2022-07-31T15:15:57.289Z,-11700.47
2022-07-31T15:19:03.426Z,-11700.03
2022-07-31T15:22:16.993Z,-11711.34
2022-07-31T15:25:25.326Z,-11696.06
2022-07-31T15:28:31.795Z,-11706.97
2022-07-31T15:31:37.852Z,-11733.37
2022-07-31T15:34:43.727Z,-11699.63
2022-07-31T15:37:50.707Z,-11666.00
2022-07-31T15:40:58.206Z,-11654.28
2022-07-31T15:44:04.287Z,-11655.53
2022-07-31T15:47:10.361Z,-11653.84
2022-07-31T15:50:18.882Z,-11641.84
2022-07-31T15:53:29.749Z,-11636.50
2022-07-31T15:56:46.839Z,-11642.28
2022-07-31T15:59:55.299Z,-11648.91
2022-07-31T16:03:01.962Z,-11639.31
2022-07-31T16:06:14.812Z,-11631.97
2022-07-31T16:09:23.993Z,-11633.81
2022-07-31T16:12:31.198Z,-11631.69
2022-07-31T16:15:37.601Z,-11635.63
2022-07-31T16:18:44.517Z,-11631.97
2022-07-31T16:21:50.508Z,-11629.72
2022-07-31T16:24:57.240Z,-11626.75
2022-07-31T16:28:05.507Z,-11621.53
2022-07-31T16:31:11.909Z,-11620.09
2022-07-31T16:34:36.730Z,-11620.66
2022-07-31T16:37:52.377Z,-11616.44
2022-07-31T16:40:59.631Z,-11616.72
2022-07-31T16:44:07.367Z,-11613.91
2022-07-31T16:47:13.839Z,-11613.03
2022-07-31T16:50:19.954Z,-11606.97
2022-07-31T16:54:10.299Z,-11607.25
2022-07-31T16:56:54.983Z,-11603.72
2022-07-31T17:00:02.781Z,-11604.56
2022-07-31T17:03:59.288Z,-11598.38
2022-07-31T17:06:38.052Z,-11598.78
2022-07-31T17:09:44.793Z,-11590.19
2022-07-31T17:12:51.060Z,-11588.91
2022-07-31T17:15:58.602Z,-11584.25
2022-07-31T17:19:05.802Z,-11586.78
2022-07-31T17:22:17.706Z,-11581.72
2022-07-31T17:25:24.521Z,-11581.84
2022-07-31T17:28:30.640Z,-11579.16
2022-07-31T17:31:38.365Z,-11581.56
2022-07-31T17:34:45.935Z,-11575.78
2022-07-31T17:37:52.302Z,-11577.91
2022-07-31T17:41:00.378Z,-11569.72
2022-07-31T17:44:06.681Z,-11561.94
2022-07-31T17:47:14.660Z,-11566.47
2022-07-31T17:50:21.150Z,-11561.81
2022-07-31T17:53:54.758Z,-11560.53
2022-07-31T17:56:53.471Z,-11559.25
2022-07-31T17:59:59.731Z,-11562.78
2022-07-31T18:03:07.176Z,-11563.06
2022-07-31T18:06:13.663Z,-11563.50
2022-07-31T18:09:23.334Z,-11564.22
2022-07-31T18:12:29.548Z,-11557.44
2022-07-31T18:15:55.788Z,-11559.41
2022-07-31T18:19:03.458Z,-11558.00
2022-07-31T18:22:09.540Z,-11555.03
2022-07-31T18:25:16.581Z,-11547.97
2022-07-31T18:28:24.207Z,-11544.44
2022-07-31T18:31:34.104Z,-11538.81
2022-07-31T18:34:43.011Z,-11535.56
2022-07-31T18:37:49.071Z,-11534.56
2022-07-31T18:40:56.058Z,-11525.84
2022-07-31T18:44:02.391Z,-11527.09
2022-07-31T18:47:08.866Z,-11528.09
2022-07-31T18:51:01.370Z,-11519.91
2022-07-31T18:53:47.508Z,-11521.59
2022-07-31T18:56:55.159Z,-11523.84
2022-07-31T19:00:02.678Z,-11519.75
2022-07-31T19:03:09.948Z,-11512.00
2022-07-31T19:06:18.214Z,-11506.78
2022-07-31T19:09:25.406Z,-11514.41
2022-07-31T19:12:31.738Z,-11514.53
2022-07-31T19:15:38.571Z,-11505.22
2022-07-31T19:18:45.111Z,-11499.59
2022-07-31T19:21:52.756Z,-11503.53
2022-07-31T19:24:59.229Z,-11507.22
2022-07-31T19:28:06.219Z,-11509.75
2022-07-31T19:31:18.395Z,-11499.44
2022-07-31T19:34:24.820Z,-11494.78
2022-07-31T19:37:32.658Z,-11501.13
2022-07-31T19:40:39.159Z,-11502.13
2022-07-31T19:43:45.884Z,-11496.47
2022-07-31T19:46:52.370Z,-11495.22
2022-07-31T19:49:58.577Z,-11479.56
2022-07-31T19:53:06.030Z,-11490.28
2022-07-31T19:56:19.763Z,-11489.16
2022-07-31T19:59:27.432Z,-11484.78
2022-07-31T20:02:33.678Z,-11486.03
2022-07-31T20:05:39.795Z,-11479.84
2022-07-31T20:08:47.410Z,-11477.44
2022-07-31T20:11:53.710Z,-11487.47
2022-07-31T20:15:00.686Z,-11475.19
2022-07-31T20:18:06.904Z,-11483.22
2022-07-31T20:21:13.903Z,-11481.09
2022-07-31T20:24:21.320Z,-11484.22
2022-07-31T20:27:27.686Z,-11484.63
2022-07-31T20:30:33.489Z,-11484.34
2022-07-31T20:33:39.740Z,-11481.38
2022-07-31T20:36:46.455Z,-11483.22
2022-07-31T20:39:54.129Z,-11485.19
2022-07-31T20:43:00.413Z,-11485.75
2022-07-31T20:46:06.772Z,-11480.97
2022-07-31T20:49:19.787Z,-11483.66
2022-07-31T20:52:39.173Z,-11479.28
2022-07-31T20:55:48.348Z,-11479.28
2022-07-31T20:58:54.367Z,-11477.16
2022-07-31T21:02:00.371Z,-11468.00
2022-07-31T21:05:07.750Z,-11475.06
2022-07-31T21:08:14.043Z,-11472.22
2022-07-31T21:11:21.644Z,-11470.09
2022-07-31T21:14:38.069Z,-11472.38
2022-07-31T21:17:44.266Z,-11461.78
2022-07-31T21:20:53.668Z,-11460.25
2022-07-31T21:24:00.973Z,-11462.91
2022-07-31T21:27:12.159Z,-11454.47
2022-07-31T21:30:18.600Z,-11447.97
2022-07-31T21:33:26.063Z,-11456.00
2022-07-31T21:36:32.436Z,-11461.09
2022-07-31T21:39:39.309Z,-11461.78
2022-07-31T21:42:47.721Z,-11456.84
2022-07-31T21:46:01.969Z,-11457.97
2022-07-31T21:49:08.939Z,-11459.81
2022-07-31T21:52:15.487Z,-11458.13
2022-07-31T21:55:21.985Z,-11455.72
2022-07-31T21:58:29.794Z,-11452.75
2022-07-31T22:01:36.340Z,-11452.47
2022-07-31T22:04:56.655Z,-11449.66
2022-07-31T22:08:03.278Z,-11451.78
2022-07-31T22:11:11.075Z,-11454.47
2022-07-31T22:14:19.025Z,-11452.75
2022-07-31T22:17:25.107Z,-11449.09
2022-07-31T22:20:31.576Z,-11448.81
2022-07-31T22:23:38.000Z,-11448.25
2022-07-31T22:27:07.903Z,-11448.81
2022-07-31T22:30:18.061Z,-11439.66
2022-07-31T22:33:24.634Z,-11445.16
2022-07-31T22:36:30.737Z,-11439.50
2022-07-31T22:39:37.995Z,-11431.34
2022-07-31T22:42:44.666Z,-11434.84
2022-07-31T22:46:04.302Z,-11440.63
2022-07-31T22:49:11.318Z,-11429.22
2022-07-31T22:52:18.468Z,-11433.88
2022-07-31T22:55:25.112Z,-11435.84
2022-07-31T22:58:31.302Z,-11430.91
2022-07-31T23:01:39.017Z,-11440.34
2022-07-31T23:04:45.695Z,-11439.66
2022-07-31T23:07:51.571Z,-11432.19
2022-07-31T23:10:57.763Z,-11426.25
2022-07-31T23:14:03.637Z,-11429.78
2022-07-31T23:17:10.961Z,-11431.63
2022-07-31T23:20:29.386Z,-11427.81
2022-07-31T23:23:35.625Z,-11419.78
2022-07-31T23:26:41.836Z,-11424.28
2022-07-31T23:29:48.021Z,-11413.72
2022-07-31T23:32:55.488Z,-11416.94
2022-07-31T23:36:02.161Z,-11419.91
2022-07-31T23:39:08.444Z,-11423.16
2022-07-31T23:42:32.144Z,-11423.16
2022-07-31T23:45:38.543Z,-11421.19
2022-07-31T23:48:45.908Z,-11417.78
2022-07-31T23:51:52.281Z,-11418.38
2022-07-31T23:54:58.540Z,-11419.63
2022-07-31T23:58:04.931Z,-11410.19
